Rechercher aéroport 
image banner adimage banner ad
image banner ad

SSOW - Comandante Carmelo Airport

Situé à Itaituba, Brazil

ICAO - SSOW, IATA -

Données fournies par Airmate  

Information générale

Coordonnées: S27°20'51" W53°24'12"
Élévation : 1843 feet MSL.
Variation magnétique : -16° East
Voir autres Aéroports à Rio Grande do Sul

Données opérationnelles

Accessible au public
Heure actuelle UTC:
Heure actuelle locale:
Météo à : SBCH - Chapecó Airport ( 77 km )
METAR: SBCH 301400Z 35016KT CAVOK 32/24 Q1014
Voir NOTAMs / SUP AIP / TFR affectant cet aéroport [VIEW]
Fréquences de communication: [VIEW]

Pistes:

Identifiant RWYQFULongueur (ft)Largeur (ft)SurfaceLDA (ft)
14242798DIRT
32242798DIRT

Coordonnées de l'aéroport

Adresse: Itaituba Brazil

Vue satellite de SSOW